Time;durP1;ratioP1;P1;durP2;ratioP2;P2;SDS_P1;SDS_P2;PMS_P1;PMS_P2;Temp;Humidity;BMP_temperature;BMP_pressure;BME280_temperature;BME280_humidity;BME280_pressure;Samples;Min_cycle;Max_cycle;Signal;HPM_P1;HPM_P2
2021/05/05 00:00:15;;;;;;;;;;;;;;;13.79;48.00;99452.75;5071811;27;98784;-79
2021/05/05 00:02:41;;;;;;;;;;;;;;;13.79;48.05;99446.59;5069681;27;98045;-78
2021/05/05 00:05:08;;;;;;;;;;;;;;;13.64;48.33;99445.88;5072295;27;97909;-78
2021/05/05 00:07:34;;;;;;;;;;;;;;;13.58;48.58;99451.59;5071163;27;99174;-78
2021/05/05 00:09:59;;;;;;;;;;;;;;;13.64;48.33;99460.94;5073362;27;99277;-78
2021/05/05 00:12:26;;;;;;;;;;;;;;;13.28;49.40;99456.28;5073381;27;96707;-78
2021/05/05 00:14:53;;;;;;;;;;;;;;;13.47;49.05;99464.72;5073107;27;97103;-78
2021/05/05 00:17:19;;;;;;;;;;;;;;;13.27;49.36;99457.25;5069600;27;99093;-78
2021/05/05 00:19:45;;;;;;;;;;;;;;;13.38;48.78;99452.09;5065208;27;99164;-78
2021/05/05 00:22:10;;;;;;;;;;;;;;;13.29;48.99;99452.69;5068490;27;96891;-78
2021/05/05 00:24:36;;;;;;;;;;;;;;;13.25;49.44;99452.06;5071814;27;97049;-78
2021/05/05 00:27:02;;;;;;;;;;;;;;;13.15;49.56;99443.84;5070457;27;98836;-78
2021/05/05 00:29:29;;;;;;;;;;;;;;;12.99;50.10;99453.75;5059163;27;98727;-78
2021/05/05 00:31:55;;;;;;;;;;;;;;;13.04;49.89;99451.66;5069244;27;96775;-78
2021/05/05 00:34:21;;;;;;;;;;;;;;;13.01;50.01;99451.84;5072053;27;97652;-78
2021/05/05 00:36:46;;;;;;;;;;;;;;;12.79;50.38;99451.56;5073039;27;98875;-78
2021/05/05 00:39:12;;;;;;;;;;;;;;;12.90;49.96;99453.50;5071495;27;97674;-78
2021/05/05 00:41:39;;;;;;;;;;;;;;;13.03;49.99;99439.34;5067543;27;96812;-78
2021/05/05 00:44:05;;;;;;;;;;;;;;;13.19;49.58;99451.63;5071995;27;98358;-78
2021/05/05 00:46:33;;;;;;;;;;;;;;;13.14;49.85;99452.75;5073167;27;98962;-78
2021/05/05 00:48:59;;;;;;;;;;;;;;;12.98;50.16;99443.25;5073484;27;99391;-78
2021/05/05 00:51:25;;;;;;;;;;;;;;;13.19;49.83;99441.00;5068410;27;96760;-78
2021/05/05 00:53:51;;;;;;;;;;;;;;;13.08;49.99;99445.19;5069866;27;96726;-77
2021/05/05 00:56:17;;;;;;;;;;;;;;;13.01;50.05;99440.38;5075560;27;98930;-78
2021/05/05 00:58:42;;;;;;;;;;;;;;;13.15;50.06;99443.00;5071925;27;97660;-78
2021/05/05 01:01:08;;;;;;;;;;;;;;;12.94;50.27;99445.22;5079215;27;98593;-77
2021/05/05 01:03:35;;;;;;;;;;;;;;;13.30;49.70;99449.09;5087756;27;96792;-77
2021/05/05 01:06:02;;;;;;;;;;;;;;;12.96;50.49;99446.00;5083255;27;97838;-77
2021/05/05 01:08:29;;;;;;;;;;;;;;;12.90;50.43;99443.75;5073359;27;98815;-78
2021/05/05 01:10:54;;;;;;;;;;;;;;;13.23;49.88;99442.50;5062200;27;96670;-78
2021/05/05 01:13:20;;;;;;;;;;;;;;;13.33;49.39;99447.06;5081502;27;96855;-79
2021/05/05 01:15:46;;;;;;;;;;;;;;;13.11;49.91;99442.34;5085707;27;99012;-78
2021/05/05 01:18:12;;;;;;;;;;;;;;;13.37;49.29;99437.13;5092613;27;97577;-79
2021/05/05 01:20:39;;;;;;;;;;;;;;;13.13;49.74;99445.75;5088613;27;96574;-79
2021/05/05 01:23:06;;;;;;;;;;;;;;;12.94;50.27;99444.38;5085566;27;96563;-79
2021/05/05 01:25:32;;;;;;;;;;;;;;;12.81;50.17;99428.44;5094638;27;96498;-77
2021/05/05 01:27:58;;;;;;;;;;;;;;;12.78;50.02;99434.81;5086584;27;97946;-79
2021/05/05 01:30:25;;;;;;;;;;;;;;;12.76;50.33;99427.88;5090535;27;95976;-78
2021/05/05 01:32:51;;;;;;;;;;;;;;;12.92;50.13;99430.41;5089422;27;96667;-80
2021/05/05 01:35:18;;;;;;;;;;;;;;;12.41;51.20;99426.66;5087829;27;100649;-79
2021/05/05 01:37:45;;;;;;;;;;;;;;;12.64;50.97;99436.63;5092491;27;97706;-78
2021/05/05 01:40:13;;;;;;;;;;;;;;;12.67;50.97;99431.13;5073479;27;97032;-78
2021/05/05 01:42:39;;;;;;;;;;;;;;;12.09;51.89;99421.59;5079879;27;96772;-78
2021/05/05 01:45:06;;;;;;;;;;;;;;;12.53;51.39;99425.88;5082876;27;97885;-78
2021/05/05 01:47:32;;;;;;;;;;;;;;;12.63;50.95;99430.47;5078308;27;101411;-78
2021/05/05 01:49:57;;;;;;;;;;;;;;;12.63;50.85;99424.34;5077652;27;96885;-78
2021/05/05 01:52:23;;;;;;;;;;;;;;;12.19;51.96;99414.78;5077219;27;96677;-78
2021/05/05 01:54:49;;;;;;;;;;;;;;;12.48;50.90;99414.72;5074448;27;98909;-78
2021/05/05 01:57:24;;;;;;;;;;;;;;;12.50;51.22;99421.63;5077973;27;97721;-78
2021/05/05 01:59:50;;;;;;;;;;;;;;;12.38;51.60;99414.47;5059957;27;96804;-78
2021/05/05 02:02:16;;;;;;;;;;;;;;;12.08;51.94;99419.88;5064179;27;96855;-78
2021/05/05 02:04:42;;;;;;;;;;;;;;;12.52;50.96;99426.84;5077310;27;98869;-79
2021/05/05 02:07:07;;;;;;;;;;;;;;;12.54;50.71;99419.63;5076471;27;98828;-79
2021/05/05 02:09:33;;;;;;;;;;;;;;;12.30;51.54;99424.69;5080337;27;96761;-79
2021/05/05 02:11:59;;;;;;;;;;;;;;;12.39;51.39;99424.13;5084022;27;97259;-78
2021/05/05 02:14:26;;;;;;;;;;;;;;;12.34;51.46;99408.50;5084869;27;98742;-79
2021/05/05 02:16:53;;;;;;;;;;;;;;;12.55;50.92;99416.88;5080696;27;97797;-79
2021/05/05 02:19:19;;;;;;;;;;;;;;;12.69;50.39;99426.59;5073049;27;97979;-79
2021/05/05 02:21:45;;;;;;;;;;;;;;;12.71;50.24;99422.03;5085282;27;96965;-78
2021/05/05 02:24:11;;;;;;;;;;;;;;;12.59;50.53;99422.84;5078668;27;98800;-78
2021/05/05 02:26:37;;;;;;;;;;;;;;;12.80;50.26;99412.66;5093733;27;97897;-79
2021/05/05 02:29:03;;;;;;;;;;;;;;;12.68;50.45;99417.78;5090596;27;96105;-78
2021/05/05 02:31:29;;;;;;;;;;;;;;;12.76;50.37;99406.69;5085255;27;97630;-77
2021/05/05 02:33:55;;;;;;;;;;;;;;;12.45;50.95;99405.19;5083758;27;96401;-78
2021/05/05 02:36:21;;;;;;;;;;;;;;;12.49;50.71;99404.03;5096544;27;98144;-79
2021/05/05 02:38:47;;;;;;;;;;;;;;;12.55;50.69;99411.56;5090327;27;96236;-79
2021/05/05 02:41:12;;;;;;;;;;;;;;;12.31;50.86;99411.34;5088545;27;97051;-78
2021/05/05 02:43:38;;;;;;;;;;;;;;;12.33;51.19;99406.81;5094812;27;98033;-79
2021/05/05 02:46:04;;;;;;;;;;;;;;;12.17;51.43;99407.88;5091554;27;98028;-79
2021/05/05 02:48:31;;;;;;;;;;;;;;;12.14;51.49;99405.44;5094292;27;96809;-78
2021/05/05 02:50:56;;;;;;;;;;;;;;;12.27;50.94;99406.34;5090552;27;97557;-77
2021/05/05 02:53:22;;;;;;;;;;;;;;;12.20;51.10;99405.03;5087558;27;96777;-78
2021/05/05 02:55:48;;;;;;;;;;;;;;;11.87;51.99;99394.78;5089168;27;98896;-77
2021/05/05 02:58:14;;;;;;;;;;;;;;;12.08;51.56;99396.06;5091629;27;96915;-78
2021/05/05 03:00:40;;;;;;;;;;;;;;;12.22;51.29;99393.38;5086727;27;96694;-78
2021/05/05 03:03:06;;;;;;;;;;;;;;;12.21;51.04;99391.69;5087974;27;97731;-78
2021/05/05 03:05:32;;;;;;;;;;;;;;;12.48;50.62;99389.06;5088204;27;98062;-77
2021/05/05 03:07:58;;;;;;;;;;;;;;;12.29;50.59;99384.09;5091226;27;96945;-77
2021/05/05 03:10:24;;;;;;;;;;;;;;;12.38;50.74;99398.56;5088369;27;96803;-77
2021/05/05 03:12:50;;;;;;;;;;;;;;;12.09;51.07;99395.09;5072429;27;98294;-77
2021/05/05 03:15:16;;;;;;;;;;;;;;;12.26;50.69;99392.25;5073784;27;99099;-77
2021/05/05 03:17:42;;;;;;;;;;;;;;;12.07;51.21;99386.44;5072202;27;97609;-77
2021/05/05 03:20:09;;;;;;;;;;;;;;;11.97;51.93;99387.94;5071445;27;96887;-77
2021/05/05 03:22:36;;;;;;;;;;;;;;;12.11;51.26;99401.16;5067543;27;99182;-77
2021/05/05 03:25:02;;;;;;;;;;;;;;;12.00;51.32;99392.22;5075823;27;98808;-76
2021/05/05 03:27:28;;;;;;;;;;;;;;;12.21;50.85;99388.19;5071793;27;97152;-78
2021/05/05 03:29:54;;;;;;;;;;;;;;;12.20;50.74;99395.31;5078227;27;97690;-77
2021/05/05 03:32:20;;;;;;;;;;;;;;;12.12;50.91;99389.63;5069292;27;97968;-78
2021/05/05 03:34:46;;;;;;;;;;;;;;;11.90;51.33;99397.22;5066718;27;97622;-78
2021/05/05 03:37:12;;;;;;;;;;;;;;;12.16;50.64;99380.53;5067922;27;97422;-78
2021/05/05 03:39:39;;;;;;;;;;;;;;;12.05;51.36;99390.13;5062525;27;96791;-78
2021/05/05 03:42:05;;;;;;;;;;;;;;;11.94;51.27;99380.22;5066646;27;99269;-78
2021/05/05 03:44:31;;;;;;;;;;;;;;;11.78;52.22;99387.38;5077651;27;99310;-78
2021/05/05 03:46:58;;;;;;;;;;;;;;;12.12;51.14;99386.13;5067657;27;108637;-78
2021/05/05 03:49:24;;;;;;;;;;;;;;;12.53;50.04;99394.09;5068744;27;97183;-78
2021/05/05 03:51:50;;;;;;;;;;;;;;;12.56;49.80;99384.13;5074054;27;97695;-79
2021/05/05 03:54:16;;;;;;;;;;;;;;;12.59;49.31;99383.09;5075888;27;98946;-79
2021/05/05 03:56:43;;;;;;;;;;;;;;;12.67;49.21;99394.03;5071128;27;96746;-79
2021/05/05 03:59:09;;;;;;;;;;;;;;;12.60;49.24;99396.22;5065944;27;96809;-79
2021/05/05 04:01:34;;;;;;;;;;;;;;;12.41;49.57;99392.22;5073465;27;98856;-78
2021/05/05 04:04:00;;;;;;;;;;;;;;;12.47;49.09;99397.13;5076112;27;99354;-79
2021/05/05 04:06:26;;;;;;;;;;;;;;;12.45;48.95;99401.69;5078448;27;97791;-78
2021/05/05 04:08:52;;;;;;;;;;;;;;;12.23;49.65;99400.38;5075950;27;96864;-78
2021/05/05 04:11:18;;;;;;;;;;;;;;;12.33;49.58;99404.16;5072522;27;98930;-78
2021/05/05 04:13:45;;;;;;;;;;;;;;;12.37;48.46;99407.47;5078967;27;98940;-78
2021/05/05 04:16:11;;;;;;;;;;;;;;;12.49;48.43;99409.31;5076463;27;96914;-78
2021/05/05 04:18:37;;;;;;;;;;;;;;;12.00;48.94;99406.28;5082679;27;96750;-77
2021/05/05 04:21:04;;;;;;;;;;;;;;;12.33;48.76;99398.88;5073107;27;98822;-77
2021/05/05 04:23:31;;;;;;;;;;;;;;;12.53;48.10;99410.00;5071356;27;98160;-78
2021/05/05 04:25:58;;;;;;;;;;;;;;;12.40;48.06;99409.06;5077961;27;96873;-77
2021/05/05 04:28:26;;;;;;;;;;;;;;;12.38;48.16;99398.56;5073741;27;96717;-78
2021/05/05 04:30:53;;;;;;;;;;;;;;;12.77;47.50;99405.72;5079035;27;100854;-78
2021/05/05 04:33:19;;;;;;;;;;;;;;;12.07;48.45;99393.53;5069024;27;99499;-78
2021/05/05 04:35:44;;;;;;;;;;;;;;;12.57;47.37;99398.22;5085034;27;97091;-78
2021/05/05 04:38:10;;;;;;;;;;;;;;;12.40;47.27;99401.97;5079263;27;97903;-78
2021/05/05 04:40:36;;;;;;;;;;;;;;;12.38;47.42;99420.63;5081509;27;98906;-79
2021/05/05 04:43:02;;;;;;;;;;;;;;;12.58;46.50;99413.19;5084204;27;99013;-78
2021/05/05 04:45:28;;;;;;;;;;;;;;;12.97;45.95;99422.97;5068092;27;97274;-78
2021/05/05 04:47:55;;;;;;;;;;;;;;;12.86;45.87;99407.78;5067164;27;96765;-78
2021/05/05 04:50:21;;;;;;;;;;;;;;;12.88;45.57;99416.47;5076954;27;96976;-77
2021/05/05 04:52:46;;;;;;;;;;;;;;;12.97;45.35;99421.19;5076840;27;97912;-78
2021/05/05 04:55:12;;;;;;;;;;;;;;;13.00;44.57;99417.47;5079342;27;96996;-78
2021/05/05 04:57:38;;;;;;;;;;;;;;;13.10;44.13;99418.56;5084111;27;96865;-77
2021/05/05 05:00:05;;;;;;;;;;;;;;;12.93;44.74;99422.31;5076523;27;98798;-78
2021/05/05 05:02:31;;;;;;;;;;;;;;;12.92;44.31;99420.66;5080603;27;98888;-79
2021/05/05 05:04:57;;;;;;;;;;;;;;;12.97;44.12;99413.22;5076886;27;97160;-79
2021/05/05 05:07:23;;;;;;;;;;;;;;;12.64;44.49;99415.44;5077508;27;97442;-79
2021/05/05 05:09:49;;;;;;;;;;;;;;;13.15;43.25;99424.44;5080579;27;96906;-78
2021/05/05 05:12:15;;;;;;;;;;;;;;;13.42;43.08;99413.78;5075505;27;99066;-79
2021/05/05 05:14:41;;;;;;;;;;;;;;;13.09;43.12;99415.06;5077834;27;96982;-79
2021/05/05 05:17:07;;;;;;;;;;;;;;;13.07;43.15;99409.00;5072698;27;98649;-78
2021/05/05 05:19:33;;;;;;;;;;;;;;;13.30;42.40;99431.38;5072870;27;97810;-79
2021/05/05 05:22:00;;;;;;;;;;;;;;;12.95;42.71;99424.88;5070947;27;97584;-78
2021/05/05 05:24:26;;;;;;;;;;;;;;;13.29;41.99;99428.81;5072012;27;98737;-78
2021/05/05 05:26:52;;;;;;;;;;;;;;;13.57;41.60;99421.56;5071808;27;97846;-79
2021/05/05 05:29:19;;;;;;;;;;;;;;;13.37;42.11;99427.34;5070278;27;99364;-78
2021/05/05 05:31:45;;;;;;;;;;;;;;;13.65;41.25;99422.81;5070700;27;98929;-77
2021/05/05 05:34:11;;;;;;;;;;;;;;;13.33;41.86;99425.84;5071789;27;99147;-78
2021/05/05 05:36:37;;;;;;;;;;;;;;;13.85;40.99;99431.09;5066875;27;98747;-78
2021/05/05 05:39:04;;;;;;;;;;;;;;;13.38;40.93;99436.16;5072547;27;98972;-79
2021/05/05 05:41:30;;;;;;;;;;;;;;;13.33;41.46;99440.91;5074076;27;98809;-79
2021/05/05 05:43:56;;;;;;;;;;;;;;;13.61;41.13;99426.63;5072273;27;97299;-78
2021/05/05 05:46:22;;;;;;;;;;;;;;;13.30;41.70;99430.53;5069148;27;96891;-78
2021/05/05 05:48:48;;;;;;;;;;;;;;;12.88;42.87;99432.38;5069543;27;98768;-78
2021/05/05 05:51:14;;;;;;;;;;;;;;;13.15;42.26;99437.69;5064849;27;98925;-77
2021/05/05 05:53:40;;;;;;;;;;;;;;;12.45;42.77;99426.38;5067808;27;98563;-80
2021/05/05 05:56:07;;;;;;;;;;;;;;;12.79;42.53;99446.25;5069633;27;96874;-79
2021/05/05 05:58:33;;;;;;;;;;;;;;;12.86;43.02;99447.56;5072075;27;99615;-79
2021/05/05 06:00:59;;;;;;;;;;;;;;;13.42;42.29;99453.56;5069333;27;99200;-79
2021/05/05 06:03:24;;;;;;;;;;;;;;;13.57;41.56;99450.75;5073389;27;97796;-79
2021/05/05 06:05:50;;;;;;;;;;;;;;;13.15;41.08;99446.50;5068695;27;97080;-78
2021/05/05 06:08:16;;;;;;;;;;;;;;;13.30;41.22;99452.59;5071143;27;98849;-80
2021/05/05 06:10:42;;;;;;;;;;;;;;;13.90;40.40;99444.91;5067298;27;97802;-79
2021/05/05 06:13:09;;;;;;;;;;;;;;;13.75;40.23;99447.78;5072330;27;97100;-77
2021/05/05 06:15:35;;;;;;;;;;;;;;;13.50;40.89;99456.56;5073763;27;97037;-77
2021/05/05 06:18:02;;;;;;;;;;;;;;;13.42;40.96;99450.91;5070246;27;98793;-78
2021/05/05 06:20:28;;;;;;;;;;;;;;;13.31;40.89;99448.16;5067802;27;98915;-78
2021/05/05 06:22:54;;;;;;;;;;;;;;;13.49;40.49;99446.91;5072287;27;98575;-79
2021/05/05 06:25:20;;;;;;;;;;;;;;;13.44;40.41;99455.19;5074971;27;96908;-80
2021/05/05 06:27:46;;;;;;;;;;;;;;;13.56;40.03;99442.88;5075123;27;100343;-79
2021/05/05 06:30:14;;;;;;;;;;;;;;;13.86;39.35;99445.22;5086671;27;98666;-79
2021/05/05 06:32:40;;;;;;;;;;;;;;;13.81;39.28;99445.53;5088037;27;97952;-78
2021/05/05 06:35:08;;;;;;;;;;;;;;;14.10;39.15;99437.34;5081944;27;97100;-78
2021/05/05 06:37:34;;;;;;;;;;;;;;;13.92;39.41;99439.47;5075376;27;99342;-79
2021/05/05 06:40:01;;;;;;;;;;;;;;;14.24;39.02;99431.94;5073679;27;100662;-78
2021/05/05 06:42:27;;;;;;;;;;;;;;;14.23;38.46;99443.50;5076520;27;96896;-78
2021/05/05 06:44:54;;;;;;;;;;;;;;;14.06;38.33;99436.72;5073199;27;98812;-78
2021/05/05 06:47:21;;;;;;;;;;;;;;;13.88;39.06;99441.50;5077164;27;98228;-78
2021/05/05 06:49:47;;;;;;;;;;;;;;;14.32;38.22;99437.50;5066989;27;99869;-78
2021/05/05 06:52:14;;;;;;;;;;;;;;;14.31;38.06;99436.66;5072798;27;97070;-79
2021/05/05 06:54:40;;;;;;;;;;;;;;;14.25;38.38;99436.25;5083838;27;96892;-79
2021/05/05 06:57:07;;;;;;;;;;;;;;;14.76;37.26;99439.66;5084396;27;97364;-77
2021/05/05 06:59:33;;;;;;;;;;;;;;;14.19;38.33;99452.63;5081240;27;98869;-78
2021/05/05 07:01:58;;;;;;;;;;;;;;;13.44;39.71;99433.97;5091063;27;98221;-79
2021/05/05 07:04:28;;;;;;;;;;;;;;;13.41;39.83;99454.53;5088508;27;97013;-78
2021/05/05 07:06:54;;;;;;;;;;;;;;;13.61;40.57;99447.88;5086151;27;98127;-78
2021/05/05 07:09:20;;;;;;;;;;;;;;;13.66;39.50;99453.69;5085804;27;98613;-78
2021/05/05 07:11:46;;;;;;;;;;;;;;;13.31;40.60;99458.75;5075450;27;96646;-79
2021/05/05 07:14:12;;;;;;;;;;;;;;;13.66;40.43;99454.56;5074489;27;97970;-78
2021/05/05 07:16:38;;;;;;;;;;;;;;;13.67;40.19;99461.56;5070934;27;97781;-78
2021/05/05 07:19:04;;;;;;;;;;;;;;;14.08;39.73;99473.78;5072324;27;98034;-79
2021/05/05 07:21:32;;;;;;;;;;;;;;;13.82;39.59;99472.94;5068556;27;96887;-79
2021/05/05 07:23:58;;;;;;;;;;;;;;;13.95;40.29;99455.22;5068902;27;97851;-79
2021/05/05 07:26:24;;;;;;;;;;;;;;;14.21;38.74;99462.19;5068472;27;97588;-78
2021/05/05 07:28:50;;;;;;;;;;;;;;;15.39;36.75;99460.63;5068747;27;98784;-77
2021/05/05 07:31:19;;;;;;;;;;;;;;;14.77;37.51;99475.09;5068938;27;97271;-77
2021/05/05 07:33:45;;;;;;;;;;;;;;;14.02;38.10;99461.78;5069428;27;97472;-78
2021/05/05 07:36:13;;;;;;;;;;;;;;;13.99;38.36;99459.34;5070297;27;99743;-78
2021/05/05 07:46:58;;;;;;;;;;;;;;;13.89;38.00;99460.94;5066800;27;97973;-78
2021/05/05 07:49:25;;;;;;;;;;;;;;;14.83;36.96;99437.41;5067823;27;97538;-77
2021/05/05 07:51:51;;;;;;;;;;;;;;;15.20;36.31;99456.81;5066389;27;97531;-78
2021/05/05 07:54:19;;;;;;;;;;;;;;;15.14;36.31;99458.13;5064249;27;98771;-77
2021/05/05 07:56:45;;;;;;;;;;;;;;;15.78;34.76;99464.75;5060480;27;102691;-78
2021/05/05 07:59:12;;;;;;;;;;;;;;;16.33;33.92;99461.31;5068267;27;99026;-78
2021/05/05 08:01:38;;;;;;;;;;;;;;;15.87;34.36;99465.88;5076233;27;96943;-78
2021/05/05 08:04:05;;;;;;;;;;;;;;;16.53;33.84;99464.19;5071606;27;97792;-79
2021/05/05 08:06:31;;;;;;;;;;;;;;;16.18;34.12;99470.50;5074744;27;98103;-78
2021/05/05 08:08:58;;;;;;;;;;;;;;;15.54;35.08;99466.66;5067116;27;98916;-80
2021/05/05 08:11:24;;;;;;;;;;;;;;;15.49;35.31;99476.78;5067803;27;98541;-79
2021/05/05 08:13:51;;;;;;;;;;;;;;;15.37;35.23;99457.22;5068536;27;96991;-78
2021/05/05 08:16:17;;;;;;;;;;;;;;;15.46;35.48;99483.16;5066434;27;100992;-78
2021/05/05 08:18:43;;;;;;;;;;;;;;;15.04;35.91;99483.69;5065772;27;98796;-78
2021/05/05 08:21:09;;;;;;;;;;;;;;;15.71;34.98;99479.50;5070110;27;97104;-78
2021/05/05 08:23:35;;;;;;;;;;;;;;;15.48;35.15;99467.94;5065344;27;97750;-81
2021/05/05 08:26:01;;;;;;;;;;;;;;;15.60;34.76;99476.84;5065802;27;99038;-79
2021/05/05 08:28:28;;;;;;;;;;;;;;;15.16;35.01;99490.78;5072457;27;98886;-80
2021/05/05 08:30:53;;;;;;;;;;;;;;;15.22;35.66;99481.50;5073943;27;96771;-79
2021/05/05 08:33:19;;;;;;;;;;;;;;;15.09;34.64;99463.78;5068727;27;98180;-79
2021/05/05 08:35:45;;;;;;;;;;;;;;;14.22;35.86;99469.22;5068595;27;100458;-79
2021/05/05 08:38:11;;;;;;;;;;;;;;;15.39;34.18;99465.09;5072598;27;97701;-79
2021/05/05 08:40:37;;;;;;;;;;;;;;;15.43;34.20;99467.41;5063314;27;96724;-80
2021/05/05 08:43:03;;;;;;;;;;;;;;;15.10;34.29;99473.44;5075209;27;96830;-79
2021/05/05 08:45:30;;;;;;;;;;;;;;;15.47;33.71;99474.22;5067705;27;98723;-79
2021/05/05 08:48:04;;;;;;;;;;;;;;;16.19;33.00;99474.03;5066180;27;98840;-79
2021/05/05 08:50:33;;;;;;;;;;;;;;;16.12;33.22;99473.66;5070853;27;96842;-79
2021/05/05 08:52:59;;;;;;;;;;;;;;;15.81;34.52;99479.69;5070991;27;97094;-79
2021/05/05 08:55:31;;;;;;;;;;;;;;;15.89;34.67;99495.88;5073230;27;99039;-79
2021/05/05 08:57:57;;;;;;;;;;;;;;;17.19;32.90;99497.09;5080771;27;96936;-79
2021/05/05 09:00:24;;;;;;;;;;;;;;;17.46;32.59;99481.41;5071512;27;97241;-80
2021/05/05 09:02:51;;;;;;;;;;;;;;;16.87;32.09;99481.03;5073407;27;96821;-78
2021/05/05 09:05:17;;;;;;;;;;;;;;;17.10;32.16;99478.19;5081559;27;97819;-79
2021/05/05 09:07:44;;;;;;;;;;;;;;;17.05;32.35;99487.53;5087129;27;97688;-79
2021/05/05 09:10:10;;;;;;;;;;;;;;;17.09;32.71;99489.81;5083169;27;97369;-79
2021/05/05 09:12:37;;;;;;;;;;;;;;;16.21;32.86;99486.25;5070098;27;97215;-80
2021/05/05 09:15:05;;;;;;;;;;;;;;;15.91;32.91;99477.97;5074979;27;98894;-79
2021/05/05 09:17:33;;;;;;;;;;;;;;;16.29;32.02;99473.16;5085657;27;97717;-78
2021/05/05 09:20:15;;;;;;;;;;;;;;;16.64;31.30;99477.56;5079574;27;96956;-79
2021/05/05 09:22:42;;;;;;;;;;;;;;;15.80;31.36;99475.31;5070596;27;96697;-79
2021/05/05 09:25:10;;;;;;;;;;;;;;;16.15;30.87;99465.41;5079806;27;98346;-79
2021/05/05 09:27:37;;;;;;;;;;;;;;;15.57;30.86;99470.88;5081568;27;99278;-78
2021/05/05 09:30:04;;;;;;;;;;;;;;;15.58;30.76;99467.25;5080031;27;97298;-78
2021/05/05 09:32:46;;;;;;;;;;;;;;;15.87;30.90;99471.22;5080251;27;97907;-80
2021/05/05 09:35:12;;;;;;;;;;;;;;;16.36;30.19;99470.88;5077687;27;99318;-76
2021/05/05 09:37:38;;;;;;;;;;;;;;;17.14;29.63;99466.25;5080676;27;100755;-79
2021/05/05 09:40:08;;;;;;;;;;;;;;;16.85;29.95;99467.81;5073047;27;97002;-78
2021/05/05 09:42:36;;;;;;;;;;;;;;;16.51;29.97;99468.81;5088418;27;96635;-79
2021/05/05 09:45:05;;;;;;;;;;;;;;;17.03;29.79;99476.13;5082789;27;100216;-80
2021/05/05 09:47:51;;;;;;;;;;;;;;;17.21;29.52;99471.94;5094792;27;98864;-80
2021/05/05 09:50:27;;;;;;;;;;;;;;;16.90;29.44;99481.63;5079562;27;97146;-80
2021/05/05 09:53:14;;;;;;;;;;;;;;;16.40;30.72;99476.81;5076002;27;96751;-79
2021/05/05 09:55:41;;;;;;;;;;;;;;;15.64;32.26;99515.56;5086743;27;97579;-80
2021/05/05 09:58:21;;;;;;;;;;;;;;;15.60;35.40;99507.94;5089850;27;98267;-80
2021/05/05 10:00:46;;;;;;;;;;;;;;;14.55;37.46;99528.94;5086691;27;97152;-79
2021/05/05 10:03:12;;;;;;;;;;;;;;;14.21;39.13;99523.31;5092115;27;96278;-78
2021/05/05 10:05:40;;;;;;;;;;;;;;;14.77;38.69;99532.59;5097478;27;97706;-78
2021/05/05 10:08:09;;;;;;;;;;;;;;;14.66;38.58;99531.69;5092147;27;98741;-80
2021/05/05 10:10:38;;;;;;;;;;;;;;;14.73;38.03;99517.84;5088424;27;96662;-77
2021/05/05 10:13:06;;;;;;;;;;;;;;;15.44;36.65;99503.72;5096424;27;96754;-79
2021/05/05 10:15:33;;;;;;;;;;;;;;;15.51;36.47;99514.75;5090273;27;98278;-78
2021/05/05 10:18:00;;;;;;;;;;;;;;;15.07;36.90;99518.91;5098052;27;97748;-79
2021/05/05 10:20:27;;;;;;;;;;;;;;;16.04;36.51;99502.72;5083177;27;96599;-80
2021/05/05 10:22:54;;;;;;;;;;;;;;;16.31;35.55;99492.56;5083187;27;98059;-81
2021/05/05 10:25:19;;;;;;;;;;;;;;;16.48;35.80;99495.69;5080745;27;99218;-79
2021/05/05 10:27:45;;;;;;;;;;;;;;;17.40;34.82;99501.47;5078016;27;99300;-79
2021/05/05 10:30:15;;;;;;;;;;;;;;;17.25;34.10;99508.09;5078108;27;98600;-78
2021/05/05 10:32:42;;;;;;;;;;;;;;;17.00;33.96;99498.56;5082520;27;96909;-77
2021/05/05 10:35:09;;;;;;;;;;;;;;;16.30;35.78;99520.19;5084213;27;97940;-77
2021/05/05 10:37:39;;;;;;;;;;;;;;;15.38;37.79;99508.66;5083165;27;98843;-78
2021/05/05 10:40:14;;;;;;;;;;;;;;;16.45;36.78;99501.28;5085557;27;98006;-78
2021/05/05 10:42:48;;;;;;;;;;;;;;;16.50;35.92;99505.28;5083215;27;97079;-78
2021/05/05 10:45:25;;;;;;;;;;;;;;;16.92;35.12;99501.03;5076123;27;98172;-78
2021/05/05 10:48:02;;;;;;;;;;;;;;;16.43;34.75;99495.22;5078404;27;98997;-78
2021/05/05 10:50:28;;;;;;;;;;;;;;;17.06;34.25;99503.44;5080115;27;97044;-78
2021/05/05 10:53:05;;;;;;;;;;;;;;;17.07;32.46;99498.91;5080570;27;96809;-80
2021/05/05 10:55:41;;;;;;;;;;;;;;;17.24;31.62;99508.22;5076853;27;100306;-79
2021/05/05 10:58:13;;;;;;;;;;;;;;;16.47;31.07;99510.88;5068920;27;98125;-79
2021/05/05 11:00:47;;;;;;;;;;;;;;;17.37;30.45;99506.22;5070693;27;96848;-78
2021/05/05 11:03:13;;;;;;;;;;;;;;;17.52;30.44;99515.66;5065782;27;97149;-78
2021/05/05 11:05:41;;;;;;;;;;;;;;;18.32;29.66;99507.88;5068466;27;98124;-79
2021/05/05 11:08:08;;;;;;;;;;;;;;;17.34;29.85;99501.97;5069295;27;100772;-79
2021/05/05 11:10:50;;;;;;;;;;;;;;;16.89;31.30;99493.25;5072528;27;97206;-78
2021/05/05 11:13:35;;;;;;;;;;;;;;;16.79;31.16;99507.47;5066505;27;98498;-79
2021/05/05 11:16:02;;;;;;;;;;;;;;;15.99;32.89;99534.19;5072176;27;100161;-80
2021/05/05 11:18:40;;;;;;;;;;;;;;;15.87;32.86;99511.16;5069721;27;101723;-78
2021/05/05 11:21:07;;;;;;;;;;;;;;;15.95;32.36;99509.59;5068045;27;97378;-78
2021/05/05 11:23:43;;;;;;;;;;;;;;;16.13;31.62;99539.31;5068432;27;97280;-78
2021/05/05 11:26:15;;;;;;;;;;;;;;;16.21;30.76;99523.56;5066795;27;98440;-78
2021/05/05 11:28:49;;;;;;;;;;;;;;;16.77;30.15;99518.28;5073105;27;99178;-79
2021/05/05 11:31:16;;;;;;;;;;;;;;;17.09;29.59;99507.66;5070005;27;97859;-78
2021/05/05 11:33:57;;;;;;;;;;;;;;;17.17;28.66;99515.03;5077873;27;97882;-79
2021/05/05 11:36:23;;;;;;;;;;;;;;;16.99;28.86;99512.91;5079791;27;98235;-78
2021/05/05 11:38:49;;;;;;;;;;;;;;;17.81;27.98;99519.41;5075491;27;97658;-78
2021/05/05 11:41:20;;;;;;;;;;;;;;;17.68;26.97;99542.78;5081840;27;97139;-78
2021/05/05 11:43:46;;;;;;;;;;;;;;;17.92;26.63;99523.84;5077726;27;97760;-79
2021/05/05 11:46:12;;;;;;;;;;;;;;;17.08;26.99;99528.16;5070672;27;101078;-78
2021/05/05 11:48:39;;;;;;;;;;;;;;;17.70;27.08;99523.97;5067404;27;98886;-80
2021/05/05 11:51:16;;;;;;;;;;;;;;;17.58;26.95;99532.97;5068281;27;98474;-78
2021/05/05 11:53:42;;;;;;;;;;;;;;;17.80;25.97;99515.03;5065693;27;97512;-79
2021/05/05 11:56:15;;;;;;;;;;;;;;;18.05;26.16;99534.34;5063641;27;100740;-79
2021/05/05 11:58:41;;;;;;;;;;;;;;;17.45;26.65;99526.00;5059735;27;98838;-79
2021/05/05 12:01:07;;;;;;;;;;;;;;;16.99;27.32;99542.25;5064897;27;97456;-81
2021/05/05 12:03:33;;;;;;;;;;;;;;;16.94;27.60;99538.25;5065187;27;96974;-79
2021/05/05 12:06:00;;;;;;;;;;;;;;;16.99;27.10;99539.59;5071511;27;98969;-80
2021/05/05 12:08:27;;;;;;;;;;;;;;;16.48;27.88;99535.69;5063926;27;100235;-80
2021/05/05 12:10:54;;;;;;;;;;;;;;;16.84;27.46;99539.97;5067351;27;98494;-79
2021/05/05 12:13:20;;;;;;;;;;;;;;;16.90;28.28;99551.00;5076146;27;96898;-82
2021/05/05 12:15:54;;;;;;;;;;;;;;;16.77;28.32;99554.75;5066466;27;101153;-79
2021/05/05 12:18:25;;;;;;;;;;;;;;;17.11;26.88;99548.41;5066771;27;98713;-80
2021/05/05 12:20:53;;;;;;;;;;;;;;;16.85;27.58;99563.88;5061286;27;97188;-82
2021/05/05 12:23:20;;;;;;;;;;;;;;;15.94;27.98;99539.88;5069489;27;98532;-79
2021/05/05 12:25:46;;;;;;;;;;;;;;;16.59;26.85;99549.91;5065188;27;99357;-78
2021/05/05 12:28:13;;;;;;;;;;;;;;;16.07;27.77;99560.25;5071591;27;97698;-80
2021/05/05 12:30:44;;;;;;;;;;;;;;;16.47;27.56;99579.34;5064384;27;98702;-79
2021/05/05 12:33:10;;;;;;;;;;;;;;;16.31;28.48;99558.34;5066392;27;96971;-79
2021/05/05 12:35:36;;;;;;;;;;;;;;;16.62;27.58;99559.50;5068331;27;98867;-80
2021/05/05 12:38:09;;;;;;;;;;;;;;;17.14;27.00;99558.81;5066671;27;97692;-80
2021/05/05 12:40:37;;;;;;;;;;;;;;;16.88;26.93;99555.59;5067610;27;97319;-79
2021/05/05 12:43:13;;;;;;;;;;;;;;;17.13;27.34;99557.16;5069927;27;96945;-80
2021/05/05 12:45:39;;;;;;;;;;;;;;;16.44;27.89;99558.25;5064716;27;99568;-78
2021/05/05 12:48:06;;;;;;;;;;;;;;;16.50;27.87;99563.94;5063056;27;98708;-80
2021/05/05 12:50:36;;;;;;;;;;;;;;;17.47;27.49;99572.09;5068078;27;97070;-78
2021/05/05 12:53:04;;;;;;;;;;;;;;;18.13;26.77;99567.44;5067170;27;98562;-79